Weather at Fuller Airport

Public forecast

Using degrees Fahrenheit for public forecast. Weather courtesy of forecast.io.

Closest aviation weather report (METAR) to Fuller Airport

Closest report is Spencer Municipal Airport, 10.2 nm (19.0 km) S. Retrieved 2021/12/03 05:53 UTC (31 minutes ago):

KSPW 030553Z AUTO 09008KT 10SM CLR 06/M01 A2994 RMK AO2 SLP146 T00561011 10072 20044 401280006 58003

Closest aviation forecast (TAF) to Fuller Airport

Closest forecast is Fort Dodge Regional Airport, 63.3 nm (117.2 km) SE. Retrieved 2021/12/03 06:22 UTC (2 minutes ago):

TAF KFOD 030520Z 0306/0406 10006KT P6SM SCT070 FM031700 34008KT P6SM SCT250